20°C Temp
17°C Dewpoint
83% Humidity
Temperature
3 KM/H
2 MPH
2 KTS
Calm
Due North

Wind Speed
Partly Cloudy
Conditions
Pressure 1024.92 (hPa) - 30.27 (in)
Visibility 6.2 (mi) - 10.0 (km)

Current Conditions
LEMG
Location 9(km)
Metar :LEMG 250130Z VRB02KT 9999 FEW017 BKN025 20/17 Q1025 NOSIG
Mon 25th May 03:30 am

Airport
  Metar Aviation API Data Provided by https://www.checkwx.com/ PHP scripts by weather34.com ©2020